sensor_id;sensor_type;location;lat;lon;timestamp;temperature;humidity
11664;DHT22;72375;59.302;18.204;2024-02-26T00:01:27;3.70;99.90
11664;DHT22;72375;59.302;18.204;2024-02-26T00:04:13;3.60;99.90
11664;DHT22;72375;59.302;18.204;2024-02-26T00:06:58;3.60;99.90
11664;DHT22;72375;59.302;18.204;2024-02-26T00:09:44;4.10;99.90
11664;DHT22;72375;59.302;18.204;2024-02-26T00:12:30;3.60;99.90
11664;DHT22;72375;59.302;18.204;2024-02-26T00:15:16;3.60;99.90
11664;DHT22;72375;59.302;18.204;2024-02-26T00:18:03;3.60;99.90
11664;DHT22;72375;59.302;18.204;2024-02-26T00:20:48;3.60;99.90
11664;DHT22;72375;59.302;18.204;2024-02-26T00:23:34;3.60;99.90
11664;DHT22;72375;59.302;18.204;2024-02-26T00:26:19;3.60;99.90
11664;DHT22;72375;59.302;18.204;2024-02-26T00:29:05;3.60;99.90
11664;DHT22;72375;59.302;18.204;2024-02-26T00:31:51;3.50;99.90
11664;DHT22;72375;59.302;18.204;2024-02-26T00:34:38;3.60;99.90
11664;DHT22;72375;59.302;18.204;2024-02-26T00:37:23;3.60;99.90
11664;DHT22;72375;59.302;18.204;2024-02-26T00:40:09;3.60;99.90
11664;DHT22;72375;59.302;18.204;2024-02-26T00:42:55;3.60;99.90
11664;DHT22;72375;59.302;18.204;2024-02-26T00:45:41;3.60;99.90
11664;DHT22;72375;59.302;18.204;2024-02-26T00:48:27;3.60;99.90
11664;DHT22;72375;59.302;18.204;2024-02-26T00:51:14;3.60;99.90
11664;DHT22;72375;59.302;18.204;2024-02-26T00:53:59;3.60;99.90
11664;DHT22;72375;59.302;18.204;2024-02-26T00:56:45;3.60;99.90
11664;DHT22;72375;59.302;18.204;2024-02-26T00:59:31;3.60;99.90
11664;DHT22;72375;59.302;18.204;2024-02-26T01:02:16;3.60;99.90
11664;DHT22;72375;59.302;18.204;2024-02-26T01:05:02;3.60;99.90
11664;DHT22;72375;59.302;18.204;2024-02-26T01:07:49;3.60;99.90
11664;DHT22;72375;59.302;18.204;2024-02-26T01:10:35;3.70;99.90
11664;DHT22;72375;59.302;18.204;2024-02-26T01:13:20;3.60;99.90
11664;DHT22;72375;59.302;18.204;2024-02-26T01:16:06;3.60;99.90
11664;DHT22;72375;59.302;18.204;2024-02-26T01:18:51;3.70;99.90
11664;DHT22;72375;59.302;18.204;2024-02-26T01:21:37;3.60;99.90
11664;DHT22;72375;59.302;18.204;2024-02-26T01:24:24;3.70;99.90
11664;DHT22;72375;59.302;18.204;2024-02-26T01:27:09;3.70;99.90
11664;DHT22;72375;59.302;18.204;2024-02-26T01:29:55;3.60;99.90
11664;DHT22;72375;59.302;18.204;2024-02-26T01:32:41;3.70;99.90
11664;DHT22;72375;59.302;18.204;2024-02-26T01:35:27;3.70;99.90
11664;DHT22;72375;59.302;18.204;2024-02-26T01:38:12;3.90;99.90
11664;DHT22;72375;59.302;18.204;2024-02-26T01:40:59;3.60;99.90
11664;DHT22;72375;59.302;18.204;2024-02-26T01:43:45;3.70;99.90
11664;DHT22;72375;59.302;18.204;2024-02-26T01:46:33;3.70;99.90
11664;DHT22;72375;59.302;18.204;2024-02-26T01:49:19;3.70;99.90
11664;DHT22;72375;59.302;18.204;2024-02-26T01:52:06;3.80;99.90
11664;DHT22;72375;59.302;18.204;2024-02-26T01:54:52;3.70;99.90
11664;DHT22;72375;59.302;18.204;2024-02-26T01:57:40;3.70;99.90
11664;DHT22;72375;59.302;18.204;2024-02-26T02:00:26;3.80;99.90
11664;DHT22;72375;59.302;18.204;2024-02-26T02:03:12;3.80;99.90
11664;DHT22;72375;59.302;18.204;2024-02-26T02:05:58;3.80;99.90
11664;DHT22;72375;59.302;18.204;2024-02-26T02:08:43;3.80;99.90
11664;DHT22;72375;59.302;18.204;2024-02-26T02:11:29;3.80;99.90
11664;DHT22;72375;59.302;18.204;2024-02-26T02:14:16;3.70;99.90
11664;DHT22;72375;59.302;18.204;2024-02-26T02:17:02;3.90;99.90
11664;DHT22;72375;59.302;18.204;2024-02-26T02:19:47;4.10;99.90
11664;DHT22;72375;59.302;18.204;2024-02-26T02:22:34;3.80;99.90
11664;DHT22;72375;59.302;18.204;2024-02-26T02:25:20;3.80;99.90
11664;DHT22;72375;59.302;18.204;2024-02-26T02:28:06;3.90;99.90
11664;DHT22;72375;59.302;18.204;2024-02-26T02:30:51;3.90;99.90
11664;DHT22;72375;59.302;18.204;2024-02-26T02:33:37;3.90;99.90
11664;DHT22;72375;59.302;18.204;2024-02-26T02:36:23;3.90;99.90
11664;DHT22;72375;59.302;18.204;2024-02-26T02:39:10;3.90;99.90
11664;DHT22;72375;59.302;18.204;2024-02-26T02:41:55;3.90;99.90
11664;DHT22;72375;59.302;18.204;2024-02-26T02:44:41;3.90;99.90
11664;DHT22;72375;59.302;18.204;2024-02-26T02:47:29;3.90;99.90
11664;DHT22;72375;59.302;18.204;2024-02-26T02:50:14;3.90;99.90
11664;DHT22;72375;59.302;18.204;2024-02-26T02:53:00;4.00;99.90
11664;DHT22;72375;59.302;18.204;2024-02-26T02:55:47;3.90;99.90
11664;DHT22;72375;59.302;18.204;2024-02-26T02:58:33;3.90;99.90
11664;DHT22;72375;59.302;18.204;2024-02-26T03:01:18;3.90;99.90
11664;DHT22;72375;59.302;18.204;2024-02-26T03:04:04;4.20;99.90
11664;DHT22;72375;59.302;18.204;2024-02-26T03:06:49;3.90;99.90
11664;DHT22;72375;59.302;18.204;2024-02-26T03:09:35;4.00;99.90
11664;DHT22;72375;59.302;18.204;2024-02-26T03:12:22;4.00;99.90
11664;DHT22;72375;59.302;18.204;2024-02-26T03:15:09;3.90;99.90
11664;DHT22;72375;59.302;18.204;2024-02-26T03:17:55;4.00;99.90
11664;DHT22;72375;59.302;18.204;2024-02-26T03:20:41;4.00;99.90
11664;DHT22;72375;59.302;18.204;2024-02-26T03:23:27;4.00;99.90
11664;DHT22;72375;59.302;18.204;2024-02-26T03:26:14;4.00;99.90
11664;DHT22;72375;59.302;18.204;2024-02-26T03:29:01;4.00;99.90
11664;DHT22;72375;59.302;18.204;2024-02-26T03:31:47;4.00;99.90
11664;DHT22;72375;59.302;18.204;2024-02-26T03:34:33;4.00;99.90
11664;DHT22;72375;59.302;18.204;2024-02-26T03:37:19;4.00;99.90
11664;DHT22;72375;59.302;18.204;2024-02-26T03:40:05;4.00;99.90
11664;DHT22;72375;59.302;18.204;2024-02-26T03:42:51;4.00;99.90
11664;DHT22;72375;59.302;18.204;2024-02-26T03:45:39;4.00;99.90
11664;DHT22;72375;59.302;18.204;2024-02-26T03:48:24;4.00;99.90
11664;DHT22;72375;59.302;18.204;2024-02-26T03:51:10;4.00;99.90
11664;DHT22;72375;59.302;18.204;2024-02-26T03:53:55;4.00;99.90
11664;DHT22;72375;59.302;18.204;2024-02-26T03:56:41;4.00;99.90
11664;DHT22;72375;59.302;18.204;2024-02-26T03:59:27;4.00;99.90
11664;DHT22;72375;59.302;18.204;2024-02-26T04:02:14;4.00;99.90
11664;DHT22;72375;59.302;18.204;2024-02-26T04:05:00;4.00;99.90
11664;DHT22;72375;59.302;18.204;2024-02-26T04:07:45;4.00;99.90
11664;DHT22;72375;59.302;18.204;2024-02-26T04:10:31;4.00;99.90
11664;DHT22;72375;59.302;18.204;2024-02-26T04:13:19;4.00;99.90
11664;DHT22;72375;59.302;18.204;2024-02-26T04:16:06;4.10;99.90
11664;DHT22;72375;59.302;18.204;2024-02-26T04:18:52;4.00;99.90
11664;DHT22;72375;59.302;18.204;2024-02-26T04:21:41;3.90;99.90
11664;DHT22;72375;59.302;18.204;2024-02-26T04:24:26;4.00;99.90
11664;DHT22;72375;59.302;18.204;2024-02-26T04:27:12;4.30;99.90
11664;DHT22;72375;59.302;18.204;2024-02-26T04:29:58;3.90;99.90
11664;DHT22;72375;59.302;18.204;2024-02-26T04:32:43;3.90;99.90
11664;DHT22;72375;59.302;18.204;2024-02-26T04:35:30;4.00;99.90
11664;DHT22;72375;59.302;18.204;2024-02-26T04:38:16;3.90;99.90
11664;DHT22;72375;59.302;18.204;2024-02-26T04:41:02;4.00;99.90
11664;DHT22;72375;59.302;18.204;2024-02-26T04:43:48;4.00;99.90
11664;DHT22;72375;59.302;18.204;2024-02-26T04:46:33;4.00;99.90
11664;DHT22;72375;59.302;18.204;2024-02-26T04:49:19;3.90;99.90
11664;DHT22;72375;59.302;18.204;2024-02-26T04:52:06;4.00;99.90
11664;DHT22;72375;59.302;18.204;2024-02-26T04:54:52;4.00;99.90
11664;DHT22;72375;59.302;18.204;2024-02-26T04:57:38;3.90;99.90
11664;DHT22;72375;59.302;18.204;2024-02-26T05:00:24;4.00;99.90
11664;DHT22;72375;59.302;18.204;2024-02-26T05:03:10;4.00;99.90
11664;DHT22;72375;59.302;18.204;2024-02-26T05:05:57;3.90;99.90
11664;DHT22;72375;59.302;18.204;2024-02-26T05:08:44;3.90;99.90
11664;DHT22;72375;59.302;18.204;2024-02-26T05:11:30;3.90;99.90
11664;DHT22;72375;59.302;18.204;2024-02-26T05:14:15;4.00;99.90
11664;DHT22;72375;59.302;18.204;2024-02-26T05:17:01;3.90;99.90
11664;DHT22;72375;59.302;18.204;2024-02-26T05:19:47;4.00;99.90
11664;DHT22;72375;59.302;18.204;2024-02-26T05:22:32;3.90;99.90
11664;DHT22;72375;59.302;18.204;2024-02-26T05:25:20;4.00;99.90
11664;DHT22;72375;59.302;18.204;2024-02-26T05:28:05;3.90;99.90
11664;DHT22;72375;59.302;18.204;2024-02-26T05:30:51;3.90;99.90
11664;DHT22;72375;59.302;18.204;2024-02-26T05:33:36;4.20;99.90
11664;DHT22;72375;59.302;18.204;2024-02-26T05:36:22;3.80;99.90
11664;DHT22;72375;59.302;18.204;2024-02-26T05:39:09;3.90;99.90
11664;DHT22;72375;59.302;18.204;2024-02-26T05:41:57;4.00;99.90
11664;DHT22;72375;59.302;18.204;2024-02-26T05:44:43;3.90;99.90
11664;DHT22;72375;59.302;18.204;2024-02-26T05:47:28;3.90;99.90
11664;DHT22;72375;59.302;18.204;2024-02-26T05:50:14;3.90;99.90
11664;DHT22;72375;59.302;18.204;2024-02-26T05:53:01;4.10;99.90
11664;DHT22;72375;59.302;18.204;2024-02-26T05:55:46;4.00;99.90
11664;DHT22;72375;59.302;18.204;2024-02-26T05:58:33;3.90;99.90
11664;DHT22;72375;59.302;18.204;2024-02-26T06:01:19;3.90;99.90
11664;DHT22;72375;59.302;18.204;2024-02-26T06:04:04;3.90;99.90
11664;DHT22;72375;59.302;18.204;2024-02-26T06:06:50;3.90;99.90
11664;DHT22;72375;59.302;18.204;2024-02-26T06:09:36;4.20;99.90
11664;DHT22;72375;59.302;18.204;2024-02-26T06:12:22;3.90;99.90
11664;DHT22;72375;59.302;18.204;2024-02-26T06:15:10;3.90;99.90
11664;DHT22;72375;59.302;18.204;2024-02-26T06:17:56;3.90;99.90
11664;DHT22;72375;59.302;18.204;2024-02-26T06:20:42;4.20;99.90
11664;DHT22;72375;59.302;18.204;2024-02-26T06:23:28;3.90;99.90
11664;DHT22;72375;59.302;18.204;2024-02-26T06:26:13;4.00;99.90
11664;DHT22;72375;59.302;18.204;2024-02-26T06:28:59;3.90;99.90
11664;DHT22;72375;59.302;18.204;2024-02-26T06:31:46;3.90;99.90
11664;DHT22;72375;59.302;18.204;2024-02-26T06:34:32;3.90;99.90
11664;DHT22;72375;59.302;18.204;2024-02-26T06:37:18;3.90;99.90
11664;DHT22;72375;59.302;18.204;2024-02-26T06:40:04;3.90;99.90
11664;DHT22;72375;59.302;18.204;2024-02-26T06:42:50;4.00;99.90
11664;DHT22;72375;59.302;18.204;2024-02-26T06:45:36;4.00;99.90
11664;DHT22;72375;59.302;18.204;2024-02-26T06:48:24;3.90;99.90
11664;DHT22;72375;59.302;18.204;2024-02-26T06:51:10;4.10;99.90
11664;DHT22;72375;59.302;18.204;2024-02-26T06:53:56;4.00;99.90
11664;DHT22;72375;59.302;18.204;2024-02-26T06:56:41;4.00;99.90
11664;DHT22;72375;59.302;18.204;2024-02-26T06:59:27;4.00;99.90
11664;DHT22;72375;59.302;18.204;2024-02-26T07:02:13;4.10;99.90
11664;DHT22;72375;59.302;18.204;2024-02-26T07:05:01;4.10;99.90
11664;DHT22;72375;59.302;18.204;2024-02-26T07:07:47;4.30;99.90
11664;DHT22;72375;59.302;18.204;2024-02-26T07:10:33;4.10;99.90
11664;DHT22;72375;59.302;18.204;2024-02-26T07:13:19;4.10;99.90
11664;DHT22;72375;59.302;18.204;2024-02-26T07:16:05;4.20;99.90
11664;DHT22;72375;59.302;18.204;2024-02-26T07:18:51;4.20;99.90
11664;DHT22;72375;59.302;18.204;2024-02-26T07:21:38;4.20;99.90
11664;DHT22;72375;59.302;18.204;2024-02-26T07:24:25;4.30;99.90
11664;DHT22;72375;59.302;18.204;2024-02-26T07:27:10;4.40;99.90
11664;DHT22;72375;59.302;18.204;2024-02-26T07:29:56;4.30;99.90
11664;DHT22;72375;59.302;18.204;2024-02-26T07:32:42;4.30;99.90
11664;DHT22;72375;59.302;18.204;2024-02-26T07:35:28;4.20;99.90
11664;DHT22;72375;59.302;18.204;2024-02-26T07:38:15;4.30;99.90
11664;DHT22;72375;59.302;18.204;2024-02-26T07:41:02;4.40;99.90
11664;DHT22;72375;59.302;18.204;2024-02-26T07:43:48;4.40;99.90
11664;DHT22;72375;59.302;18.204;2024-02-26T07:46:33;4.40;99.90
11664;DHT22;72375;59.302;18.204;2024-02-26T07:49:19;4.90;99.90
11664;DHT22;72375;59.302;18.204;2024-02-26T07:52:05;4.50;99.90
11664;DHT22;72375;59.302;18.204;2024-02-26T07:54:52;4.60;99.90
11664;DHT22;72375;59.302;18.204;2024-02-26T07:57:41;4.60;99.90
11664;DHT22;72375;59.302;18.204;2024-02-26T08:00:27;4.70;99.90
11664;DHT22;72375;59.302;18.204;2024-02-26T08:03:13;4.70;99.90
11664;DHT22;72375;59.302;18.204;2024-02-26T08:05:59;4.70;99.90
11664;DHT22;72375;59.302;18.204;2024-02-26T08:08:45;4.80;99.90
11664;DHT22;72375;59.302;18.204;2024-02-26T08:11:32;4.90;99.90
11664;DHT22;72375;59.302;18.204;2024-02-26T08:14:18;4.90;99.90
11664;DHT22;72375;59.302;18.204;2024-02-26T08:17:04;5.00;99.90
11664;DHT22;72375;59.302;18.204;2024-02-26T08:19:50;5.00;99.90
11664;DHT22;72375;59.302;18.204;2024-02-26T08:22:35;5.10;99.90
11664;DHT22;72375;59.302;18.204;2024-02-26T08:25:21;5.10;99.90
11664;DHT22;72375;59.302;18.204;2024-02-26T08:28:08;5.10;99.90
11664;DHT22;72375;59.302;18.204;2024-02-26T08:30:55;5.10;99.90
11664;DHT22;72375;59.302;18.204;2024-02-26T08:33:41;5.20;99.90
11664;DHT22;72375;59.302;18.204;2024-02-26T08:36:27;5.20;99.90
11664;DHT22;72375;59.302;18.204;2024-02-26T08:39:12;5.30;99.90
11664;DHT22;72375;59.302;18.204;2024-02-26T08:41:58;5.40;99.90
11664;DHT22;72375;59.302;18.204;2024-02-26T08:44:45;5.40;99.90
11664;DHT22;72375;59.302;18.204;2024-02-26T08:47:31;5.60;99.90
11664;DHT22;72375;59.302;18.204;2024-02-26T08:50:17;5.60;99.90
11664;DHT22;72375;59.302;18.204;2024-02-26T08:53:03;5.60;99.90
11664;DHT22;72375;59.302;18.204;2024-02-26T08:55:48;5.70;99.90
11664;DHT22;72375;59.302;18.204;2024-02-26T08:58:35;5.80;99.90
11664;DHT22;72375;59.302;18.204;2024-02-26T09:01:22;6.00;99.90
11664;DHT22;72375;59.302;18.204;2024-02-26T09:04:08;6.00;99.90
11664;DHT22;72375;59.302;18.204;2024-02-26T09:06:54;6.10;99.90
11664;DHT22;72375;59.302;18.204;2024-02-26T09:09:40;6.20;99.90
11664;DHT22;72375;59.302;18.204;2024-02-26T09:12:25;6.30;99.90
11664;DHT22;72375;59.302;18.204;2024-02-26T09:15:11;6.30;99.90
11664;DHT22;72375;59.302;18.204;2024-02-26T09:17:58;6.30;99.90
11664;DHT22;72375;59.302;18.204;2024-02-26T09:20:44;6.30;99.90
11664;DHT22;72375;59.302;18.204;2024-02-26T09:23:30;6.20;99.90
11664;DHT22;72375;59.302;18.204;2024-02-26T09:26:15;6.20;99.90
11664;DHT22;72375;59.302;18.204;2024-02-26T09:29:01;6.20;99.90
11664;DHT22;72375;59.302;18.204;2024-02-26T09:31:46;6.20;99.90
11664;DHT22;72375;59.302;18.204;2024-02-26T09:34:33;6.20;99.90
11664;DHT22;72375;59.302;18.204;2024-02-26T09:37:19;6.20;99.90
11664;DHT22;72375;59.302;18.204;2024-02-26T09:40:06;6.20;99.90
11664;DHT22;72375;59.302;18.204;2024-02-26T09:42:59;6.30;99.90
11664;DHT22;72375;59.302;18.204;2024-02-26T09:45:45;6.30;99.90
11664;DHT22;72375;59.302;18.204;2024-02-26T09:48:32;6.30;99.90
11664;DHT22;72375;59.302;18.204;2024-02-26T09:51:23;6.40;99.90
11664;DHT22;72375;59.302;18.204;2024-02-26T09:54:10;6.50;99.90
11664;DHT22;72375;59.302;18.204;2024-02-26T09:56:59;6.60;99.90
11664;DHT22;72375;59.302;18.204;2024-02-26T09:59:46;6.70;99.90
11664;DHT22;72375;59.302;18.204;2024-02-26T10:02:34;6.80;99.90
11664;DHT22;72375;59.302;18.204;2024-02-26T10:05:21;6.90;99.90
11664;DHT22;72375;59.302;18.204;2024-02-26T10:08:08;7.00;99.90
11664;DHT22;72375;59.302;18.204;2024-02-26T10:10:54;7.20;99.90
11664;DHT22;72375;59.302;18.204;2024-02-26T10:13:40;7.40;99.90
11664;DHT22;72375;59.302;18.204;2024-02-26T10:16:26;7.50;99.90
11664;DHT22;72375;59.302;18.204;2024-02-26T10:19:24;7.60;99.90
11664;DHT22;72375;59.302;18.204;2024-02-26T10:22:11;7.60;99.90
11664;DHT22;72375;59.302;18.204;2024-02-26T10:24:58;7.60;99.90
11664;DHT22;72375;59.302;18.204;2024-02-26T10:27:43;7.60;99.90
11664;DHT22;72375;59.302;18.204;2024-02-26T10:30:30;7.60;99.90
11664;DHT22;72375;59.302;18.204;2024-02-26T10:33:16;7.70;99.90
11664;DHT22;72375;59.302;18.204;2024-02-26T10:36:02;7.60;99.90
11664;DHT22;72375;59.302;18.204;2024-02-26T10:38:48;7.60;99.90
11664;DHT22;72375;59.302;18.204;2024-02-26T10:41:35;7.60;99.90
11664;DHT22;72375;59.302;18.204;2024-02-26T10:44:21;7.60;99.90
11664;DHT22;72375;59.302;18.204;2024-02-26T10:47:07;7.70;99.90
11664;DHT22;72375;59.302;18.204;2024-02-26T10:49:53;7.60;99.90
11664;DHT22;72375;59.302;18.204;2024-02-26T10:52:40;7.60;99.90
11664;DHT22;72375;59.302;18.204;2024-02-26T10:55:27;7.60;99.90
11664;DHT22;72375;59.302;18.204;2024-02-26T10:58:14;7.60;99.90
11664;DHT22;72375;59.302;18.204;2024-02-26T11:01:01;7.60;99.90
11664;DHT22;72375;59.302;18.204;2024-02-26T11:03:50;7.70;99.90
11664;DHT22;72375;59.302;18.204;2024-02-26T11:06:36;7.80;99.90
11664;DHT22;72375;59.302;18.204;2024-02-26T11:09:22;8.00;99.90
11664;DHT22;72375;59.302;18.204;2024-02-26T11:12:09;8.20;99.90
11664;DHT22;72375;59.302;18.204;2024-02-26T11:14:58;8.50;99.90
11664;DHT22;72375;59.302;18.204;2024-02-26T11:17:46;8.70;99.90
11664;DHT22;72375;59.302;18.204;2024-02-26T11:20:33;8.80;99.90
11664;DHT22;72375;59.302;18.204;2024-02-26T11:23:19;8.90;99.90
11664;DHT22;72375;59.302;18.204;2024-02-26T11:26:06;9.00;99.90
11664;DHT22;72375;59.302;18.204;2024-02-26T11:28:52;9.00;99.90
11664;DHT22;72375;59.302;18.204;2024-02-26T11:31:40;9.00;99.90
11664;DHT22;72375;59.302;18.204;2024-02-26T11:34:27;9.00;99.90
11664;DHT22;72375;59.302;18.204;2024-02-26T11:37:16;8.90;99.90
11664;DHT22;72375;59.302;18.204;2024-02-26T11:40:02;9.00;99.90
11664;DHT22;72375;59.302;18.204;2024-02-26T11:42:47;9.10;99.90
11664;DHT22;72375;59.302;18.204;2024-02-26T11:45:54;9.20;99.90
11664;DHT22;72375;59.302;18.204;2024-02-26T11:48:45;9.30;99.90
11664;DHT22;72375;59.302;18.204;2024-02-26T11:51:33;9.50;99.90
11664;DHT22;72375;59.302;18.204;2024-02-26T11:54:43;9.60;99.90
11664;DHT22;72375;59.302;18.204;2024-02-26T11:57:30;9.70;99.90
11664;DHT22;72375;59.302;18.204;2024-02-26T12:00:16;9.70;99.90
11664;DHT22;72375;59.302;18.204;2024-02-26T12:03:07;9.70;99.90
11664;DHT22;72375;59.302;18.204;2024-02-26T12:05:56;9.60;99.90
11664;DHT22;72375;59.302;18.204;2024-02-26T12:08:44;9.60;99.90
11664;DHT22;72375;59.302;18.204;2024-02-26T12:11:30;9.60;99.90
11664;DHT22;72375;59.302;18.204;2024-02-26T12:14:18;9.50;99.90
11664;DHT22;72375;59.302;18.204;2024-02-26T12:17:03;9.50;99.90
11664;DHT22;72375;59.302;18.204;2024-02-26T12:19:51;9.50;99.90
11664;DHT22;72375;59.302;18.204;2024-02-26T12:22:39;9.50;99.90
11664;DHT22;72375;59.302;18.204;2024-02-26T12:25:27;9.50;99.90
11664;DHT22;72375;59.302;18.204;2024-02-26T12:28:14;9.50;99.90
11664;DHT22;72375;59.302;18.204;2024-02-26T12:30:59;9.50;99.90
11664;DHT22;72375;59.302;18.204;2024-02-26T12:33:45;9.50;99.90
11664;DHT22;72375;59.302;18.204;2024-02-26T12:36:31;9.40;99.90
11664;DHT22;72375;59.302;18.204;2024-02-26T12:39:18;9.40;99.90
11664;DHT22;72375;59.302;18.204;2024-02-26T12:42:04;9.30;99.90
11664;DHT22;72375;59.302;18.204;2024-02-26T12:44:52;9.20;99.90
11664;DHT22;72375;59.302;18.204;2024-02-26T12:47:38;9.20;99.90
11664;DHT22;72375;59.302;18.204;2024-02-26T12:50:24;9.10;99.90
11664;DHT22;72375;59.302;18.204;2024-02-26T12:53:11;9.00;99.90
11664;DHT22;72375;59.302;18.204;2024-02-26T12:55:58;9.00;99.90
11664;DHT22;72375;59.302;18.204;2024-02-26T12:58:45;8.90;99.90
11664;DHT22;72375;59.302;18.204;2024-02-26T13:01:31;8.90;99.90
11664;DHT22;72375;59.302;18.204;2024-02-26T13:04:18;8.90;99.90
11664;DHT22;72375;59.302;18.204;2024-02-26T13:07:04;8.90;99.90
11664;DHT22;72375;59.302;18.204;2024-02-26T13:09:49;8.90;99.90
11664;DHT22;72375;59.302;18.204;2024-02-26T13:12:42;8.80;99.90
11664;DHT22;72375;59.302;18.204;2024-02-26T13:15:28;8.90;99.90
11664;DHT22;72375;59.302;18.204;2024-02-26T13:18:14;8.80;99.90
11664;DHT22;72375;59.302;18.204;2024-02-26T13:21:11;8.80;99.90
11664;DHT22;72375;59.302;18.204;2024-02-26T13:23:57;8.80;99.90
11664;DHT22;72375;59.302;18.204;2024-02-26T13:26:43;8.70;99.90
11664;DHT22;72375;59.302;18.204;2024-02-26T13:29:30;8.70;99.90
11664;DHT22;72375;59.302;18.204;2024-02-26T13:32:16;8.70;99.90
11664;DHT22;72375;59.302;18.204;2024-02-26T13:35:06;8.60;99.90
11664;DHT22;72375;59.302;18.204;2024-02-26T13:37:53;8.50;99.90
11664;DHT22;72375;59.302;18.204;2024-02-26T13:40:39;8.50;99.90
11664;DHT22;72375;59.302;18.204;2024-02-26T13:43:24;8.40;99.90
11664;DHT22;72375;59.302;18.204;2024-02-26T13:46:11;8.40;99.90
11664;DHT22;72375;59.302;18.204;2024-02-26T13:48:59;8.30;99.90
11664;DHT22;72375;59.302;18.204;2024-02-26T13:51:45;8.30;99.90
11664;DHT22;72375;59.302;18.204;2024-02-26T13:54:30;8.30;99.90
11664;DHT22;72375;59.302;18.204;2024-02-26T13:57:17;8.20;99.90
11664;DHT22;72375;59.302;18.204;2024-02-26T14:00:03;8.20;99.90
11664;DHT22;72375;59.302;18.204;2024-02-26T14:02:51;8.20;99.90
11664;DHT22;72375;59.302;18.204;2024-02-26T14:05:37;8.10;99.90
11664;DHT22;72375;59.302;18.204;2024-02-26T14:08:22;8.10;99.90
11664;DHT22;72375;59.302;18.204;2024-02-26T14:11:08;8.10;99.90
11664;DHT22;72375;59.302;18.204;2024-02-26T14:13:54;8.10;99.90
11664;DHT22;72375;59.302;18.204;2024-02-26T14:16:40;8.00;99.90
11664;DHT22;72375;59.302;18.204;2024-02-26T14:19:27;8.00;99.90
11664;DHT22;72375;59.302;18.204;2024-02-26T14:22:13;8.00;99.90
11664;DHT22;72375;59.302;18.204;2024-02-26T14:24:59;7.90;99.90
11664;DHT22;72375;59.302;18.204;2024-02-26T14:27:45;7.90;99.90
11664;DHT22;72375;59.302;18.204;2024-02-26T14:30:30;7.90;99.90
11664;DHT22;72375;59.302;18.204;2024-02-26T14:33:16;7.80;99.90
11664;DHT22;72375;59.302;18.204;2024-02-26T14:36:05;7.80;99.90
11664;DHT22;72375;59.302;18.204;2024-02-26T14:38:51;7.80;99.90
11664;DHT22;72375;59.302;18.204;2024-02-26T14:41:36;7.70;99.90
11664;DHT22;72375;59.302;18.204;2024-02-26T14:44:22;7.70;99.90
11664;DHT22;72375;59.302;18.204;2024-02-26T14:47:08;7.70;99.90
11664;DHT22;72375;59.302;18.204;2024-02-26T14:49:54;7.60;99.90
11664;DHT22;72375;59.302;18.204;2024-02-26T14:52:41;7.60;99.90
11664;DHT22;72375;59.302;18.204;2024-02-26T14:55:26;7.60;99.90
11664;DHT22;72375;59.302;18.204;2024-02-26T14:58:12;7.60;99.90
11664;DHT22;72375;59.302;18.204;2024-02-26T15:00:58;7.50;99.90
11664;DHT22;72375;59.302;18.204;2024-02-26T15:03:43;7.50;99.90
11664;DHT22;72375;59.302;18.204;2024-02-26T15:06:29;7.50;99.90
11664;DHT22;72375;59.302;18.204;2024-02-26T15:09:16;7.50;99.90
11664;DHT22;72375;59.302;18.204;2024-02-26T15:12:02;7.50;99.90
11664;DHT22;72375;59.302;18.204;2024-02-26T15:14:50;7.40;99.90
11664;DHT22;72375;59.302;18.204;2024-02-26T15:17:35;7.40;99.90
11664;DHT22;72375;59.302;18.204;2024-02-26T15:20:22;7.40;99.90
11664;DHT22;72375;59.302;18.204;2024-02-26T15:23:07;7.40;99.90
11664;DHT22;72375;59.302;18.204;2024-02-26T15:25:55;7.40;99.90
11664;DHT22;72375;59.302;18.204;2024-02-26T15:28:40;7.30;99.90
11664;DHT22;72375;59.302;18.204;2024-02-26T15:31:26;7.30;99.90
11664;DHT22;72375;59.302;18.204;2024-02-26T15:34:12;7.30;99.90
11664;DHT22;72375;59.302;18.204;2024-02-26T15:36:58;7.20;99.90
11664;DHT22;72375;59.302;18.204;2024-02-26T15:39:44;7.20;99.90
11664;DHT22;72375;59.302;18.204;2024-02-26T15:42:30;7.20;99.90
11664;DHT22;72375;59.302;18.204;2024-02-26T15:45:16;7.20;99.90
11664;DHT22;72375;59.302;18.204;2024-02-26T15:48:02;7.20;99.90
11664;DHT22;72375;59.302;18.204;2024-02-26T15:50:48;7.10;99.90
11664;DHT22;72375;59.302;18.204;2024-02-26T15:53:34;7.10;99.90
11664;DHT22;72375;59.302;18.204;2024-02-26T15:56:19;7.10;99.90
11664;DHT22;72375;59.302;18.204;2024-02-26T15:59:08;7.00;99.90
11664;DHT22;72375;59.302;18.204;2024-02-26T16:01:54;7.00;99.90
11664;DHT22;72375;59.302;18.204;2024-02-26T16:04:39;7.00;99.90
11664;DHT22;72375;59.302;18.204;2024-02-26T16:07:31;7.00;99.90
11664;DHT22;72375;59.302;18.204;2024-02-26T16:10:18;7.00;99.90
11664;DHT22;72375;59.302;18.204;2024-02-26T16:13:04;7.00;99.90
11664;DHT22;72375;59.302;18.204;2024-02-26T16:15:56;6.90;99.90
11664;DHT22;72375;59.302;18.204;2024-02-26T16:18:43;6.90;99.90
11664;DHT22;72375;59.302;18.204;2024-02-26T16:21:29;6.90;99.90
11664;DHT22;72375;59.302;18.204;2024-02-26T16:24:15;6.80;99.90
11664;DHT22;72375;59.302;18.204;2024-02-26T16:27:00;6.80;99.90
11664;DHT22;72375;59.302;18.204;2024-02-26T16:29:46;6.70;99.90
11664;DHT22;72375;59.302;18.204;2024-02-26T16:32:34;6.70;99.90
11664;DHT22;72375;59.302;18.204;2024-02-26T16:35:21;6.70;99.90
11664;DHT22;72375;59.302;18.204;2024-02-26T16:38:07;6.70;99.90
11664;DHT22;72375;59.302;18.204;2024-02-26T16:40:53;6.60;99.90
11664;DHT22;72375;59.302;18.204;2024-02-26T16:43:39;6.60;99.90
11664;DHT22;72375;59.302;18.204;2024-02-26T16:46:25;6.60;99.90
11664;DHT22;72375;59.302;18.204;2024-02-26T16:49:12;6.60;99.90
11664;DHT22;72375;59.302;18.204;2024-02-26T16:51:57;6.60;99.90
11664;DHT22;72375;59.302;18.204;2024-02-26T16:54:43;6.60;99.90
11664;DHT22;72375;59.302;18.204;2024-02-26T16:57:28;6.60;99.90
11664;DHT22;72375;59.302;18.204;2024-02-26T17:00:15;6.50;99.90
11664;DHT22;72375;59.302;18.204;2024-02-26T17:03:01;6.50;99.90
11664;DHT22;72375;59.302;18.204;2024-02-26T17:05:48;6.50;99.90
11664;DHT22;72375;59.302;18.204;2024-02-26T17:08:34;6.50;99.90
11664;DHT22;72375;59.302;18.204;2024-02-26T17:11:20;6.50;99.90
11664;DHT22;72375;59.302;18.204;2024-02-26T17:14:08;6.50;99.90
11664;DHT22;72375;59.302;18.204;2024-02-26T17:16:53;6.40;99.90
11664;DHT22;72375;59.302;18.204;2024-02-26T17:19:39;6.40;99.90
11664;DHT22;72375;59.302;18.204;2024-02-26T17:22:27;6.40;99.90
11664;DHT22;72375;59.302;18.204;2024-02-26T17:25:12;6.30;99.90
11664;DHT22;72375;59.302;18.204;2024-02-26T17:28:00;6.40;99.90
11664;DHT22;72375;59.302;18.204;2024-02-26T17:30:46;6.30;99.90